sensor_id;sensor_type;location;lat;lon;timestamp;pressure;altitude;pressure_sealevel;temperature;humidity
40954;BME280;26686;50.130;8.710;2023-07-31T00:04:44;99928.00;;;19.76;61.72
40954;BME280;26686;50.130;8.710;2023-07-31T00:09:45;99924.97;;;19.65;61.94
40954;BME280;26686;50.130;8.710;2023-07-31T00:14:47;99921.09;;;19.52;62.25
40954;BME280;26686;50.130;8.710;2023-07-31T00:19:48;99930.50;;;19.56;62.08
40954;BME280;26686;50.130;8.710;2023-07-31T00:24:51;99928.81;;;19.55;62.00
40954;BME280;26686;50.130;8.710;2023-07-31T00:29:53;99936.19;;;19.47;62.15
40954;BME280;26686;50.130;8.710;2023-07-31T00:34:55;99928.94;;;19.47;62.38
40954;BME280;26686;50.130;8.710;2023-07-31T00:39:56;99913.38;;;19.49;63.30
40954;BME280;26686;50.130;8.710;2023-07-31T00:44:58;99918.78;;;19.49;64.01
40954;BME280;26686;50.130;8.710;2023-07-31T00:49:59;99901.88;;;19.40;64.38
40954;BME280;26686;50.130;8.710;2023-07-31T00:55:01;99908.56;;;19.45;64.58
40954;BME280;26686;50.130;8.710;2023-07-31T01:00:02;99907.84;;;19.36;64.66
40954;BME280;26686;50.130;8.710;2023-07-31T01:05:04;99909.03;;;19.33;64.54
40954;BME280;26686;50.130;8.710;2023-07-31T01:10:21;99910.84;;;19.26;64.32
40954;BME280;26686;50.130;8.710;2023-07-31T01:15:24;99906.09;;;19.28;64.51
40954;BME280;26686;50.130;8.710;2023-07-31T01:20:27;99899.00;;;19.27;64.34
40954;BME280;26686;50.130;8.710;2023-07-31T01:25:53;99890.91;;;19.27;63.78
40954;BME280;26686;50.130;8.710;2023-07-31T01:30:58;99892.97;;;19.25;63.15
40954;BME280;26686;50.130;8.710;2023-07-31T01:36:01;99895.47;;;19.27;63.46
40954;BME280;26686;50.130;8.710;2023-07-31T01:41:03;99879.28;;;19.27;62.96
40954;BME280;26686;50.130;8.710;2023-07-31T01:46:04;99865.59;;;19.28;62.21
40954;BME280;26686;50.130;8.710;2023-07-31T01:51:06;99858.28;;;19.22;61.80
40954;BME280;26686;50.130;8.710;2023-07-31T01:56:07;99864.88;;;19.19;61.65
40954;BME280;26686;50.130;8.710;2023-07-31T02:01:08;99854.19;;;19.26;61.15
40954;BME280;26686;50.130;8.710;2023-07-31T02:06:10;99852.22;;;19.20;60.92
40954;BME280;26686;50.130;8.710;2023-07-31T02:11:11;99850.63;;;19.25;60.63
40954;BME280;26686;50.130;8.710;2023-07-31T02:16:13;99845.59;;;19.22;60.52
40954;BME280;26686;50.130;8.710;2023-07-31T02:21:14;99843.75;;;19.23;60.83
40954;BME280;26686;50.130;8.710;2023-07-31T02:26:16;99843.75;;;19.23;60.87
40954;BME280;26686;50.130;8.710;2023-07-31T02:31:17;99839.25;;;19.30;60.63
40954;BME280;26686;50.130;8.710;2023-07-31T02:36:23;99848.66;;;19.34;60.30
40954;BME280;26686;50.130;8.710;2023-07-31T02:41:24;99841.19;;;19.36;59.83
40954;BME280;26686;50.130;8.710;2023-07-31T02:46:25;99843.84;;;19.30;59.92
40954;BME280;26686;50.130;8.710;2023-07-31T02:51:27;99844.03;;;19.28;59.95
40954;BME280;26686;50.130;8.710;2023-07-31T02:56:28;99841.97;;;19.30;59.81
40954;BME280;26686;50.130;8.710;2023-07-31T03:01:30;99852.38;;;19.33;59.68
40954;BME280;26686;50.130;8.710;2023-07-31T03:06:32;99857.50;;;19.28;59.72
40954;BME280;26686;50.130;8.710;2023-07-31T03:11:33;99851.94;;;19.30;60.11
40954;BME280;26686;50.130;8.710;2023-07-31T03:16:35;99844.03;;;19.28;60.43
40954;BME280;26686;50.130;8.710;2023-07-31T03:21:36;99853.13;;;19.27;60.91
40954;BME280;26686;50.130;8.710;2023-07-31T03:26:38;99848.13;;;19.24;61.43
40954;BME280;26686;50.130;8.710;2023-07-31T03:31:42;99839.78;;;19.19;61.51
40954;BME280;26686;50.130;8.710;2023-07-31T03:36:44;99831.41;;;19.14;62.38
40954;BME280;26686;50.130;8.710;2023-07-31T03:41:45;99850.47;;;19.12;62.80
40954;BME280;26686;50.130;8.710;2023-07-31T03:46:47;99849.34;;;19.06;62.97
40954;BME280;26686;50.130;8.710;2023-07-31T03:51:49;99854.94;;;19.05;63.60
40954;BME280;26686;50.130;8.710;2023-07-31T03:56:51;99850.84;;;19.09;63.66
40954;BME280;26686;50.130;8.710;2023-07-31T04:01:52;99855.41;;;19.08;63.89
40954;BME280;26686;50.130;8.710;2023-07-31T04:06:54;99857.81;;;19.03;64.23
40954;BME280;26686;50.130;8.710;2023-07-31T04:11:55;99850.50;;;18.97;64.29
40954;BME280;26686;50.130;8.710;2023-07-31T04:16:56;99848.84;;;18.96;64.62
40954;BME280;26686;50.130;8.710;2023-07-31T04:21:58;99827.91;;;18.98;64.28
40954;BME280;26686;50.130;8.710;2023-07-31T04:26:59;99833.28;;;18.98;64.40
40954;BME280;26686;50.130;8.710;2023-07-31T04:32:01;99829.78;;;18.98;64.11
40954;BME280;26686;50.130;8.710;2023-07-31T04:37:02;99827.53;;;19.01;63.80
40954;BME280;26686;50.130;8.710;2023-07-31T04:42:04;99823.81;;;19.02;64.45
40954;BME280;26686;50.130;8.710;2023-07-31T04:47:05;99820.06;;;19.03;63.83
40954;BME280;26686;50.130;8.710;2023-07-31T04:52:07;99825.75;;;19.08;63.82
40954;BME280;26686;50.130;8.710;2023-07-31T04:57:08;99826.84;;;19.14;64.46
40954;BME280;26686;50.130;8.710;2023-07-31T05:02:11;99818.94;;;19.13;63.78
40954;BME280;26686;50.130;8.710;2023-07-31T05:07:13;99826.00;;;19.14;63.76
40954;BME280;26686;50.130;8.710;2023-07-31T05:12:15;99819.69;;;19.06;63.77
40954;BME280;26686;50.130;8.710;2023-07-31T05:17:16;99811.44;;;19.08;63.71
40954;BME280;26686;50.130;8.710;2023-07-31T05:22:18;99817.56;;;19.02;64.11
40954;BME280;26686;50.130;8.710;2023-07-31T05:27:19;99825.84;;;19.00;64.65
40954;BME280;26686;50.130;8.710;2023-07-31T05:32:21;99827.06;;;18.98;64.89
40954;BME280;26686;50.130;8.710;2023-07-31T05:37:25;99815.22;;;18.84;65.08
40954;BME280;26686;50.130;8.710;2023-07-31T05:42:26;99818.06;;;18.90;65.28
40954;BME280;26686;50.130;8.710;2023-07-31T05:47:28;99803.56;;;18.92;66.15
40954;BME280;26686;50.130;8.710;2023-07-31T05:52:29;99806.72;;;18.95;66.23
40954;BME280;26686;50.130;8.710;2023-07-31T05:57:31;99810.59;;;18.93;65.87
40954;BME280;26686;50.130;8.710;2023-07-31T06:02:32;99801.75;;;18.99;65.60
40954;BME280;26686;50.130;8.710;2023-07-31T06:07:37;99802.69;;;19.06;66.61
40954;BME280;26686;50.130;8.710;2023-07-31T06:12:39;99802.63;;;18.99;65.62
40954;BME280;26686;50.130;8.710;2023-07-31T06:17:40;99792.28;;;19.03;65.34
40954;BME280;26686;50.130;8.710;2023-07-31T06:22:42;99791.88;;;19.06;65.42
40954;BME280;26686;50.130;8.710;2023-07-31T06:27:44;99793.03;;;18.97;64.89
40954;BME280;26686;50.130;8.710;2023-07-31T06:32:45;99803.25;;;19.01;64.75
40954;BME280;26686;50.130;8.710;2023-07-31T06:37:47;99791.50;;;19.09;64.62
40954;BME280;26686;50.130;8.710;2023-07-31T06:42:48;99773.72;;;19.15;64.60
40954;BME280;26686;50.130;8.710;2023-07-31T06:47:49;99799.69;;;19.16;64.33
40954;BME280;26686;50.130;8.710;2023-07-31T06:52:51;99791.41;;;19.17;64.15
40954;BME280;26686;50.130;8.710;2023-07-31T06:57:54;99815.22;;;19.14;64.10
40954;BME280;26686;50.130;8.710;2023-07-31T07:02:55;99794.72;;;19.19;64.21
40954;BME280;26686;50.130;8.710;2023-07-31T07:07:57;99787.16;;;19.30;63.90
40954;BME280;26686;50.130;8.710;2023-07-31T07:12:59;99799.06;;;19.35;63.22
40954;BME280;26686;50.130;8.710;2023-07-31T07:18:00;99788.75;;;19.24;63.28
40954;BME280;26686;50.130;8.710;2023-07-31T07:23:02;99781.56;;;19.31;63.50
40954;BME280;26686;50.130;8.710;2023-07-31T07:28:03;99769.00;;;19.38;63.45
40954;BME280;26686;50.130;8.710;2023-07-31T07:33:05;99765.63;;;19.58;63.10
40954;BME280;26686;50.130;8.710;2023-07-31T07:38:07;99756.50;;;19.81;62.42
40954;BME280;26686;50.130;8.710;2023-07-31T07:43:08;99754.94;;;19.93;62.05
40954;BME280;26686;50.130;8.710;2023-07-31T07:48:09;99741.19;;;19.88;62.30
40954;BME280;26686;50.130;8.710;2023-07-31T07:53:11;99740.81;;;19.91;62.25
40954;BME280;26686;50.130;8.710;2023-07-31T07:58:13;99751.69;;;20.04;62.56
40954;BME280;26686;50.130;8.710;2023-07-31T08:03:14;99745.91;;;20.07;62.54
40954;BME280;26686;50.130;8.710;2023-07-31T08:08:16;99746.75;;;20.14;62.54
40954;BME280;26686;50.130;8.710;2023-07-31T08:13:18;99743.47;;;20.19;62.18
40954;BME280;26686;50.130;8.710;2023-07-31T08:18:19;99741.81;;;20.18;62.32
40954;BME280;26686;50.130;8.710;2023-07-31T08:23:21;99725.13;;;20.14;62.56
40954;BME280;26686;50.130;8.710;2023-07-31T08:28:22;99713.47;;;20.07;62.65
40954;BME280;26686;50.130;8.710;2023-07-31T08:33:24;99727.72;;;20.29;63.02
40954;BME280;26686;50.130;8.710;2023-07-31T08:38:26;99712.00;;;20.46;62.38
40954;BME280;26686;50.130;8.710;2023-07-31T08:43:27;99705.94;;;20.44;62.03
40954;BME280;26686;50.130;8.710;2023-07-31T08:48:29;99708.06;;;20.49;62.22
40954;BME280;26686;50.130;8.710;2023-07-31T08:53:31;99712.09;;;20.66;61.19
40954;BME280;26686;50.130;8.710;2023-07-31T08:58:34;99715.22;;;20.70;60.65
40954;BME280;26686;50.130;8.710;2023-07-31T09:03:38;99720.03;;;20.68;60.77
40954;BME280;26686;50.130;8.710;2023-07-31T09:08:41;99712.72;;;20.69;61.53
40954;BME280;26686;50.130;8.710;2023-07-31T09:13:43;99706.34;;;20.76;60.79
40954;BME280;26686;50.130;8.710;2023-07-31T09:18:54;99704.06;;;20.93;60.85
40954;BME280;26686;50.130;8.710;2023-07-31T09:23:58;99702.00;;;21.09;60.30
40954;BME280;26686;50.130;8.710;2023-07-31T09:29:00;99687.25;;;21.25;60.49
40954;BME280;26686;50.130;8.710;2023-07-31T09:34:02;99697.25;;;21.37;59.40
40954;BME280;26686;50.130;8.710;2023-07-31T09:39:04;99687.88;;;21.27;59.05
40954;BME280;26686;50.130;8.710;2023-07-31T09:44:05;99707.25;;;21.24;58.34
40954;BME280;26686;50.130;8.710;2023-07-31T09:49:11;99703.69;;;21.16;60.40
40954;BME280;26686;50.130;8.710;2023-07-31T09:54:16;99687.63;;;20.95;63.57
40954;BME280;26686;50.130;8.710;2023-07-31T09:59:19;99693.25;;;21.00;64.01
40954;BME280;26686;50.130;8.710;2023-07-31T10:04:27;99668.50;;;21.03;63.01
40954;BME280;26686;50.130;8.710;2023-07-31T10:09:31;99657.25;;;21.06;60.74
40954;BME280;26686;50.130;8.710;2023-07-31T10:14:33;99642.91;;;21.26;60.49
40954;BME280;26686;50.130;8.710;2023-07-31T10:19:35;99637.69;;;21.37;58.81
40954;BME280;26686;50.130;8.710;2023-07-31T10:24:37;99651.44;;;21.49;57.72
40954;BME280;26686;50.130;8.710;2023-07-31T10:29:41;99641.50;;;21.50;58.04
40954;BME280;26686;50.130;8.710;2023-07-31T10:34:42;99631.66;;;21.49;56.45
40954;BME280;26686;50.130;8.710;2023-07-31T10:40:02;99617.13;;;21.50;55.83
40954;BME280;26686;50.130;8.710;2023-07-31T10:45:06;99621.25;;;21.59;55.14
40954;BME280;26686;50.130;8.710;2023-07-31T10:50:12;99621.88;;;21.61;55.34
40954;BME280;26686;50.130;8.710;2023-07-31T10:55:31;99617.72;;;21.65;55.16
40954;BME280;26686;50.130;8.710;2023-07-31T11:00:33;99606.63;;;21.80;55.30
40954;BME280;26686;50.130;8.710;2023-07-31T11:16:04;99597.59;;;22.00;54.78
40954;BME280;26686;50.130;8.710;2023-07-31T11:21:06;99590.09;;;22.02;54.65
40954;BME280;26686;50.130;8.710;2023-07-31T11:26:08;99587.78;;;22.05;54.38
40954;BME280;26686;50.130;8.710;2023-07-31T11:31:10;99584.66;;;22.02;54.51
40954;BME280;26686;50.130;8.710;2023-07-31T11:36:20;99588.34;;;22.14;53.99
40954;BME280;26686;50.130;8.710;2023-07-31T11:41:21;99571.69;;;22.17;53.64
40954;BME280;26686;50.130;8.710;2023-07-31T11:46:23;99567.91;;;22.18;54.10
40954;BME280;26686;50.130;8.710;2023-07-31T11:51:25;99572.13;;;22.07;53.91
40954;BME280;26686;50.130;8.710;2023-07-31T11:56:28;99568.78;;;22.12;54.33
40954;BME280;26686;50.130;8.710;2023-07-31T12:01:29;99568.34;;;22.15;53.08
40954;BME280;26686;50.130;8.710;2023-07-31T12:06:35;99557.50;;;22.15;52.82
40954;BME280;26686;50.130;8.710;2023-07-31T12:11:45;99564.34;;;22.24;53.07
40954;BME280;26686;50.130;8.710;2023-07-31T12:16:46;99554.72;;;22.29;52.57
40954;BME280;26686;50.130;8.710;2023-07-31T12:21:49;99546.19;;;22.32;53.38
40954;BME280;26686;50.130;8.710;2023-07-31T12:26:51;99540.34;;;22.28;53.96
40954;BME280;26686;50.130;8.710;2023-07-31T12:31:53;99570.81;;;22.23;53.54
40954;BME280;26686;50.130;8.710;2023-07-31T12:36:55;99542.06;;;22.16;53.94
40954;BME280;26686;50.130;8.710;2023-07-31T12:41:56;99542.72;;;22.11;53.95
40954;BME280;26686;50.130;8.710;2023-07-31T12:46:58;99525.41;;;22.12;53.75
40954;BME280;26686;50.130;8.710;2023-07-31T12:51:59;99510.38;;;22.16;54.15
40954;BME280;26686;50.130;8.710;2023-07-31T12:57:00;99490.97;;;22.19;53.98
40954;BME280;26686;50.130;8.710;2023-07-31T13:02:02;99481.41;;;22.49;53.25
40954;BME280;26686;50.130;8.710;2023-07-31T13:07:03;99473.59;;;22.84;52.29
40954;BME280;26686;50.130;8.710;2023-07-31T13:12:05;99458.78;;;23.12;51.56
40954;BME280;26686;50.130;8.710;2023-07-31T13:17:07;99469.44;;;23.25;52.08
40954;BME280;26686;50.130;8.710;2023-07-31T13:22:09;99475.88;;;23.12;52.83
40954;BME280;26686;50.130;8.710;2023-07-31T13:27:10;99464.00;;;23.07;51.71
40954;BME280;26686;50.130;8.710;2023-07-31T13:32:11;99484.34;;;22.98;51.17
40954;BME280;26686;50.130;8.710;2023-07-31T13:37:14;99466.38;;;22.97;51.71
40954;BME280;26686;50.130;8.710;2023-07-31T13:42:15;99464.31;;;22.99;51.64
40954;BME280;26686;50.130;8.710;2023-07-31T13:47:17;99466.72;;;23.07;51.64
40954;BME280;26686;50.130;8.710;2023-07-31T13:52:19;99467.75;;;23.06;52.01
40954;BME280;26686;50.130;8.710;2023-07-31T13:57:20;99470.31;;;23.01;51.83
40954;BME280;26686;50.130;8.710;2023-07-31T14:02:21;99459.00;;;22.85;51.92
40954;BME280;26686;50.130;8.710;2023-07-31T14:07:23;99471.50;;;22.86;52.50
40954;BME280;26686;50.130;8.710;2023-07-31T14:12:24;99457.78;;;22.81;52.93
40954;BME280;26686;50.130;8.710;2023-07-31T14:17:32;99459.56;;;22.69;52.97
40954;BME280;26686;50.130;8.710;2023-07-31T14:22:34;99451.69;;;22.60;53.06
40954;BME280;26686;50.130;8.710;2023-07-31T14:27:36;99445.31;;;22.55;53.61
40954;BME280;26686;50.130;8.710;2023-07-31T14:32:37;99461.78;;;22.53;53.51
40954;BME280;26686;50.130;8.710;2023-07-31T14:37:40;99443.06;;;22.45;53.46
40954;BME280;26686;50.130;8.710;2023-07-31T14:42:42;99443.06;;;22.45;54.00
40954;BME280;26686;50.130;8.710;2023-07-31T14:47:43;99431.78;;;22.48;54.10
40954;BME280;26686;50.130;8.710;2023-07-31T14:52:45;99424.19;;;22.57;54.24
40954;BME280;26686;50.130;8.710;2023-07-31T14:57:47;99423.69;;;22.67;54.18
40954;BME280;26686;50.130;8.710;2023-07-31T15:02:48;99416.63;;;22.66;54.36
40954;BME280;26686;50.130;8.710;2023-07-31T15:07:50;99429.41;;;22.58;54.28
40954;BME280;26686;50.130;8.710;2023-07-31T15:12:53;99422.59;;;22.49;54.43
40954;BME280;26686;50.130;8.710;2023-07-31T15:17:54;99430.56;;;22.44;54.30
40954;BME280;26686;50.130;8.710;2023-07-31T15:22:56;99443.59;;;22.35;55.19
40954;BME280;26686;50.130;8.710;2023-07-31T15:27:58;99436.06;;;22.31;55.11
40954;BME280;26686;50.130;8.710;2023-07-31T15:32:59;99435.06;;;22.25;54.76
40954;BME280;26686;50.130;8.710;2023-07-31T15:38:01;99438.00;;;22.23;54.79
40954;BME280;26686;50.130;8.710;2023-07-31T15:43:02;99428.44;;;22.21;54.66
40954;BME280;26686;50.130;8.710;2023-07-31T15:48:05;99431.78;;;22.16;54.58
40954;BME280;26686;50.130;8.710;2023-07-31T15:53:06;99438.88;;;22.17;54.70
40954;BME280;26686;50.130;8.710;2023-07-31T15:58:08;99433.66;;;22.16;54.86
40954;BME280;26686;50.130;8.710;2023-07-31T16:03:09;99446.66;;;22.07;54.49
40954;BME280;26686;50.130;8.710;2023-07-31T16:08:11;99440.47;;;21.93;54.38
40954;BME280;26686;50.130;8.710;2023-07-31T16:13:12;99442.00;;;21.82;54.82
40954;BME280;26686;50.130;8.710;2023-07-31T16:18:14;99441.84;;;21.77;54.52
40954;BME280;26686;50.130;8.710;2023-07-31T16:23:15;99445.59;;;21.76;54.34
40954;BME280;26686;50.130;8.710;2023-07-31T16:28:16;99429.31;;;21.83;55.67
40954;BME280;26686;50.130;8.710;2023-07-31T16:33:18;99423.69;;;21.84;55.15
40954;BME280;26686;50.130;8.710;2023-07-31T16:38:19;99414.09;;;21.82;55.19
40954;BME280;26686;50.130;8.710;2023-07-31T16:43:21;99419.28;;;21.83;55.93
40954;BME280;26686;50.130;8.710;2023-07-31T16:48:22;99392.22;;;21.83;55.42
40954;BME280;26686;50.130;8.710;2023-07-31T16:53:24;99378.44;;;21.85;55.06
40954;BME280;26686;50.130;8.710;2023-07-31T16:58:25;99366.78;;;21.84;56.55
40954;BME280;26686;50.130;8.710;2023-07-31T17:03:26;99375.53;;;21.80;56.12
40954;BME280;26686;50.130;8.710;2023-07-31T17:08:28;99365.38;;;21.75;56.71
40954;BME280;26686;50.130;8.710;2023-07-31T17:13:30;99373.94;;;21.72;56.90
40954;BME280;26686;50.130;8.710;2023-07-31T17:18:31;99374.81;;;21.66;57.78
40954;BME280;26686;50.130;8.710;2023-07-31T17:23:32;99362.34;;;21.58;58.90
40954;BME280;26686;50.130;8.710;2023-07-31T17:28:34;99362.66;;;21.36;62.78
40954;BME280;26686;50.130;8.710;2023-07-31T17:33:35;99344.22;;;21.20;64.16
40954;BME280;26686;50.130;8.710;2023-07-31T17:38:37;99362.13;;;21.14;64.93
40954;BME280;26686;50.130;8.710;2023-07-31T17:43:38;99363.41;;;21.05;66.92
40954;BME280;26686;50.130;8.710;2023-07-31T17:48:39;99365.91;;;21.00;68.96
40954;BME280;26686;50.130;8.710;2023-07-31T17:53:43;99351.81;;;20.91;69.90
40954;BME280;26686;50.130;8.710;2023-07-31T17:58:45;99332.72;;;20.79;69.14
40954;BME280;26686;50.130;8.710;2023-07-31T18:03:46;99336.44;;;20.78;70.33
40954;BME280;26686;50.130;8.710;2023-07-31T18:08:48;99321.47;;;20.76;71.38
40954;BME280;26686;50.130;8.710;2023-07-31T18:13:50;99311.91;;;20.80;71.23
40954;BME280;26686;50.130;8.710;2023-07-31T18:18:51;99319.41;;;20.71;71.54
40954;BME280;26686;50.130;8.710;2023-07-31T18:23:52;99308.59;;;20.64;72.20
40954;BME280;26686;50.130;8.710;2023-07-31T18:28:57;99317.34;;;20.60;72.31
40954;BME280;26686;50.130;8.710;2023-07-31T18:33:59;99324.81;;;20.58;72.60
40954;BME280;26686;50.130;8.710;2023-07-31T18:39:00;99322.75;;;20.60;71.69
40954;BME280;26686;50.130;8.710;2023-07-31T18:44:02;99317.13;;;20.61;72.48
40954;BME280;26686;50.130;8.710;2023-07-31T18:49:03;99311.72;;;20.61;71.97
40954;BME280;26686;50.130;8.710;2023-07-31T18:54:05;99292.59;;;20.63;72.46
40954;BME280;26686;50.130;8.710;2023-07-31T18:59:07;99287.59;;;20.60;72.26
40954;BME280;26686;50.130;8.710;2023-07-31T19:04:08;99277.81;;;20.59;72.55
40954;BME280;26686;50.130;8.710;2023-07-31T19:09:11;99286.13;;;20.64;72.12
40954;BME280;26686;50.130;8.710;2023-07-31T19:14:13;99297.78;;;20.64;73.52
40954;BME280;26686;50.130;8.710;2023-07-31T19:19:14;99305.03;;;20.64;73.08
40954;BME280;26686;50.130;8.710;2023-07-31T19:24:16;99290.53;;;20.52;73.92
40954;BME280;26686;50.130;8.710;2023-07-31T19:29:17;99296.16;;;20.43;74.44
40954;BME280;26686;50.130;8.710;2023-07-31T19:34:19;99285.16;;;20.38;74.61
40954;BME280;26686;50.130;8.710;2023-07-31T19:39:20;99297.03;;;20.37;75.24
40954;BME280;26686;50.130;8.710;2023-07-31T19:44:23;99298.69;;;20.31;75.22
40954;BME280;26686;50.130;8.710;2023-07-31T19:49:25;99296.19;;;20.30;76.02
40954;BME280;26686;50.130;8.710;2023-07-31T19:54:28;99284.13;;;20.26;76.21
40954;BME280;26686;50.130;8.710;2023-07-31T19:59:29;99263.75;;;20.23;75.25
40954;BME280;26686;50.130;8.710;2023-07-31T20:04:31;99249.84;;;20.20;75.74
40954;BME280;26686;50.130;8.710;2023-07-31T20:09:32;99234.69;;;20.19;75.90
40954;BME280;26686;50.130;8.710;2023-07-31T20:14:34;99233.06;;;20.04;75.98
40954;BME280;26686;50.130;8.710;2023-07-31T20:19:35;99226.81;;;20.04;76.18
40954;BME280;26686;50.130;8.710;2023-07-31T20:24:37;99216.03;;;19.97;76.47
40954;BME280;26686;50.130;8.710;2023-07-31T20:29:38;99218.09;;;19.95;76.35
40954;BME280;26686;50.130;8.710;2023-07-31T20:34:41;99221.44;;;19.97;76.89
40954;BME280;26686;50.130;8.710;2023-07-31T20:39:42;99213.53;;;19.89;78.40
40954;BME280;26686;50.130;8.710;2023-07-31T20:44:44;99217.69;;;19.78;79.67
40954;BME280;26686;50.130;8.710;2023-07-31T20:49:45;99219.75;;;19.69;80.08
40954;BME280;26686;50.130;8.710;2023-07-31T20:54:47;99205.22;;;19.57;81.49
40954;BME280;26686;50.130;8.710;2023-07-31T20:59:49;99206.47;;;19.61;83.19
40954;BME280;26686;50.130;8.710;2023-07-31T21:04:51;99196.72;;;19.47;83.38
40954;BME280;26686;50.130;8.710;2023-07-31T21:09:52;99197.75;;;19.39;86.03
40954;BME280;26686;50.130;8.710;2023-07-31T21:14:53;99194.41;;;19.30;88.57
40954;BME280;26686;50.130;8.710;2023-07-31T21:19:55;99180.50;;;19.20;89.43
40954;BME280;26686;50.130;8.710;2023-07-31T21:24:57;99168.88;;;19.19;91.05
40954;BME280;26686;50.130;8.710;2023-07-31T21:29:58;99162.84;;;19.11;91.71
40954;BME280;26686;50.130;8.710;2023-07-31T21:35:01;99142.72;;;19.06;92.55
40954;BME280;26686;50.130;8.710;2023-07-31T21:40:02;99135.25;;;19.02;93.58
40954;BME280;26686;50.130;8.710;2023-07-31T21:45:05;99117.22;;;19.02;94.38
40954;BME280;26686;50.130;8.710;2023-07-31T21:50:08;99114.09;;;18.99;94.02
40954;BME280;26686;50.130;8.710;2023-07-31T21:55:10;99106.41;;;18.96;94.81
40954;BME280;26686;50.130;8.710;2023-07-31T22:00:12;99093.78;;;18.96;95.22
40954;BME280;26686;50.130;8.710;2023-07-31T22:05:13;99085.66;;;18.89;94.60
40954;BME280;26686;50.130;8.710;2023-07-31T22:10:15;99075.06;;;18.81;96.06
40954;BME280;26686;50.130;8.710;2023-07-31T22:15:16;99069.25;;;18.78;96.96
40954;BME280;26686;50.130;8.710;2023-07-31T22:20:18;99068.63;;;18.76;97.05
40954;BME280;26686;50.130;8.710;2023-07-31T22:25:20;99064.28;;;18.68;98.62
40954;BME280;26686;50.130;8.710;2023-07-31T22:30:21;99055.53;;;18.59;100.00
40954;BME280;26686;50.130;8.710;2023-07-31T22:35:23;99047.25;;;18.54;100.00
40954;BME280;26686;50.130;8.710;2023-07-31T22:40:25;99042.44;;;18.49;100.00
40954;BME280;26686;50.130;8.710;2023-07-31T22:45:26;99031.91;;;18.54;100.00
40954;BME280;26686;50.130;8.710;2023-07-31T22:50:28;99027.34;;;18.55;100.00
40954;BME280;26686;50.130;8.710;2023-07-31T22:55:30;99020.09;;;18.55;100.00
40954;BME280;26686;50.130;8.710;2023-07-31T23:00:31;98998.09;;;18.52;100.00
40954;BME280;26686;50.130;8.710;2023-07-31T23:05:32;98997.91;;;18.47;100.00
40954;BME280;26686;50.130;8.710;2023-07-31T23:10:34;98984.44;;;18.47;100.00
40954;BME280;26686;50.130;8.710;2023-07-31T23:15:37;98975.31;;;18.41;100.00
40954;BME280;26686;50.130;8.710;2023-07-31T23:20:38;98970.75;;;18.42;100.00
40954;BME280;26686;50.130;8.710;2023-07-31T23:25:40;98971.59;;;18.49;100.00
40954;BME280;26686;50.130;8.710;2023-07-31T23:30:41;98966.81;;;18.37;100.00
40954;BME280;26686;50.130;8.710;2023-07-31T23:35:43;98952.28;;;18.38;100.00
40954;BME280;26686;50.130;8.710;2023-07-31T23:40:44;98938.00;;;18.38;100.00
40954;BME280;26686;50.130;8.710;2023-07-31T23:45:45;98905.88;;;18.30;100.00
40954;BME280;26686;50.130;8.710;2023-07-31T23:50:47;98907.34;;;18.32;100.00
40954;BME280;26686;50.130;8.710;2023-07-31T23:55:48;98903.81;;;18.25;100.00
